METAR KRZZ 192354Z AUTO 00000KT 1 1/4SM -SN BR OVC002 01/00 A3011 RMK AO2 SLP198 P0001 60019 T00060000 10011 20000 58007 
SPECI KRZZ 192333Z AUTO 00000KT 3/4SM -SN BR OVC004 01/00 A3013 RMK AO2 P0001 
METAR KRZZ 192254Z AUTO 00000KT 1SM -SN BR OVC004 01/00 A3012 RMK AO2 SLP201 P0002 T00060000 
SPECI KRZZ 192231Z AUTO 00000KT 1SM -SN BR BKN002 OVC007 01/00 A3012 RMK AO2 P0001 
SPECI KRZZ 192212Z AUTO 00000KT 1SM -SN BR VV009 01/00 A3013 RMK AO2 P0000 
METAR KRZZ 192154Z AUTO 00000KT 1SM -SN BR VV011 01/00 A3013 RMK AO2 SLP203 P0003 T00060000 
METAR KRZZ 192054Z AUTO 00000KT 1/2SM SN FG BKN010 OVC014 01/00 A3014 RMK AO2 SLP206 P0005 60013 T00060000 56018 
SPECI KRZZ 192034Z AUTO 00000KT 3/4SM -SN BR VV012 01/00 A3014 RMK AO2 P0003 
METAR KRZZ 191954Z AUTO 29003KT 1 1/2SM -SN BR SCT002 OVC014 01/00 A3016 RMK AO2 SLP213 P0004 T00060000 
SPECI KRZZ 191921Z AUTO 00000KT 1 1/2SM -SN BR BKN002 BKN008 OVC020 01/00 A3014 RMK AO2 P0002 
SPECI KRZZ 191906Z AUTO 00000KT 1SM -SN BR SCT002 BKN008 OVC022 01/00 A3015 RMK AO2 P0001 
METAR KRZZ 191854Z AUTO 00000KT 1/2SM SN FG FEW002 BKN006 OVC022 01/00 A3015 RMK AO2 SLP209 P0004 T00060000 
SPECI KRZZ 191839Z AUTO 00000KT 3/4SM -SN BR FEW002 BKN006 OVC022 01/00 A3012 RMK AO2 PRESFR P0003 
SPECI KRZZ 191828Z AUTO 00000KT 3/4SM -SN BR FEW002 OVC008 01/00 A3017 RMK AO2 P0002 
SPECI KRZZ 191819Z AUTO 00000KT 1SM -SN BR FEW004 OVC009 01/01 A3017 RMK AO2 P0002 
SPECI KRZZ 191809Z AUTO 00000KT 1 1/2SM -SN BR SCT004 OVC013 01/01 A3020 RMK AO2 P0001 
METAR KRZZ 191754Z AUTO 00000KT 1 3/4SM -SN BR SCT004 OVC007 01/01 A3019 RMK AO2 RAB1657E11UPB11E13SNE08B13 SLP224 P0005 60008 T00110006 10050 20011 58014 
SPECI KRZZ 191742Z AUTO 00000KT 1 3/4SM -SN BR OVC009 02/01 A3019 RMK AO2 RAB1657E11UPB11E13SNE08B13 P0004 
SPECI KRZZ 191737Z AUTO 00000KT 2 1/2SM -SN BR FEW006 OVC009 02/01 A3019 RMK AO2 RAB1657E11UPB11E13SNE08B13 P0003 
SPECI KRZZ 191729Z AUTO 09003KT 3SM -SN BR FEW006 OVC011 02/01 A3019 RMK AO2 RAB1657E11UPB11E13SNE08B13 P0002 
METAR KRZZ 191654Z AUTO 10006KT 5SM -SN BR OVC013 02/01 A3020 RMK AO2 RAE48SNB20E29B48 SLP228 P0003 T00220006 
METAR KRZZ 191554Z AUTO 08004KT 6SM -RA OVC015 04/M01 A3023 RMK AO2 RAB15 SLP239 P0000 T00391006 
SPECI KRZZ 191512Z AUTO 05004KT 9SM BKN021 BKN026 05/M02 A3023 RMK AO2 
METAR KRZZ 191454Z AUTO 02004KT 10SM FEW029 05/M02 A3023 RMK AO2 SLP238 T00501022 53013 
METAR KRZZ 191354Z AUTO 03005KT 6SM HZ BKN070 04/M02 A3018 RMK AO2 SLP221 T00441022 
SPECI KRZZ 191344Z AUTO 06008KT 1 3/4SM HZ OVC075 04/M03 A3018 RMK AO2 
METAR KRZZ 191254Z AUTO VRB03KT 10SM BKN065 BKN080 05/M02 A3019 RMK AO2 SLP223 T00501022 
METAR KRZZ 191154Z AUTO VRB03KT 10SM OVC080 05/M02 A3019 RMK AO2 PRESRR SLP225 T00501017 10050 20044 53004 
METAR KRZZ 191054Z AUTO 32003KT 10SM OVC085 04/M02 A3017 RMK AO2 SLP218 T00441022 
METAR KRZZ 190954Z AUTO 26004KT 10SM OVC095 04/M02 A3016 RMK AO2 SLP213 T00441022 
METAR KRZZ 190854Z AUTO 28006KT 10SM OVC100 04/M02 A3018 RMK AO2 SLP222 T00441022 51016 
METAR KRZZ 190754Z AUTO 25004KT 10SM CLR 04/M02 A3016 RMK AO2 SLP213 T00441022 
METAR KRZZ 190654Z AUTO 24006KT 10SM FEW120 05/M03 A3018 RMK AO2 SLP222 T00501028 
METAR KRZZ 190554Z AUTO 00000KT 10SM CLR 04/M03 A3013 RMK AO2 SLP205 T00441028 10050 20039 50001 
METAR KRZZ 190454Z AUTO 24004KT 10SM CLR 04/M03 A3015 RMK AO2 SLP210 T00441028 400671006 
METAR KRZZ 190354Z AUTO 24005KT 10SM CLR 04/M03 A3016 RMK AO2 SLP212 T00441028 
METAR KRZZ 190254Z AUTO 00000KT 10SM FEW100 04/M03 A3013 RMK AO2 PRESFR SLP204 T00441028 58014 
METAR KRZZ 190154Z AUTO 25003KT 10SM CLR 04/M03 A3018 RMK AO2 SLP221 T00441028 
METAR KRZZ 190054Z AUTO 00000KT 10SM SCT110 04/M03 A3016 RMK AO2 SLP215 T00441028 
METAR KRZZ 182354Z AUTO 00000KT 10SM FEW120 05/M03 A3017 RMK AO2 SLP219 T00501028 10067 20044 55004 
METAR KRZZ 182254Z AUTO 00000KT 10SM CLR 05/M03 A3014 RMK AO2 SLP208 T00501033 
METAR KRZZ 182154Z AUTO 00000KT 10SM CLR 06/M04 A3019 RMK AO2 SLP223 T00561039 
METAR KRZZ 182054Z AUTO 00000KT 10SM CLR 06/M04 A3018 RMK AO2 SLP222 T00611044 56007 
METAR KRZZ 182054Z AUTO 00000KT 10SM CLR 06/M04 A3018 RMK AO2 SLP222 T00611044 56007 
METAR KRZZ 181954Z AUTO VRB04KT 10SM CLR 06/M05 A3020 RMK AO2 SLP226 T00611050 
METAR KRZZ 181854Z AUTO 23004KT 10SM CLR 06/M06 A3018 RMK AO2 PRESFR SLP221 T00611056 
METAR KRZZ 181754Z AUTO 00000KT 10SM CLR 06/M06 A3020 RMK AO2 SLP229 T00561056 10061 21006 58027 
METAR KRZZ 181654Z AUTO 00000KT 10SM CLR 06/M06 A3025 RMK AO2 SLP243 T00561056 
METAR KRZZ 181554Z AUTO VRB04KT 10SM CLR 05/M06 A3027 RMK AO2 SLP250 T00501056 
METAR KRZZ 181454Z AUTO 00000KT 10SM CLR 04/M04 A3028 RMK AO2 SLP256 T00441044 51013 
METAR KRZZ 181354Z AUTO 36005KT 10SM CLR 03/M04 A3027 RMK AO2 SLP252 T00331044 
METAR KRZZ 181254Z AUTO 30003KT 10SM CLR 02/M04 A3027 RMK AO2 SLP251 T00171044 
METAR KRZZ 181154Z AUTO 32003KT 10SM CLR M01/M06 A3025 RMK AO2 SLP243 T10061056 10028 21006 53017 
METAR KRZZ 181054Z AUTO 32004KT 10SM CLR 01/M06 A3022 RMK AO2 SLP234 T00061056 
METAR KRZZ 180954Z AUTO 33005KT 10SM CLR 01/M04 A3021 RMK AO2 SLP230 T00061044 
METAR KRZZ 180854Z AUTO 00000KT 10SM CLR 00/M04 A3020 RMK AO2 SLP226 T00001044 51016 
METAR KRZZ 180754Z AUTO 00000KT 10SM CLR 02/M06 A3019 RMK AO2 SLP225 T00171056 
METAR KRZZ 180654Z AUTO 33003KT 10SM CLR 02/M05 A3017 RMK AO2 SLP217 T00171050 
METAR KRZZ 180554Z AUTO VRB04KT 10SM CLR 03/M05 A3015 RMK AO2 SLP209 T00281050 10106 20028 51021 
METAR KRZZ 180454Z AUTO 01006KT 10SM CLR 04/M04 A3013 RMK AO2 SLP204 T00391044 401330039 
METAR KRZZ 180454Z AUTO 01006KT 10SM CLR 04/M04 A3013 RMK AO2 SLP204 T00391044 401330039 
METAR KRZZ 180354Z AUTO 36007KT 10SM CLR 06/M05 A3011 RMK AO2 SLP195 T00561050 
METAR KRZZ 180254Z AUTO 34005KT 10SM CLR 07/M05 A3009 RMK AO2 PRESRR SLP188 T00721050 53044 
METAR KRZZ 180154Z AUTO 31007KT 10SM CLR 09/M03 A3003 RMK AO2 SLP169 T00891028 
METAR KRZZ 180054Z AUTO 29007KT 10SM CLR 10/M02 A2998 RMK AO2 SLP154 T01001017 
METAR KRZZ 172354Z AUTO VRB06KT 10SM CLR 11/M01 A2995 RMK AO2 SLP143 T01061006 10128 20094 53034 
METAR KRZZ 172254Z AUTO 29004KT 10SM CLR 11/02 A2992 RMK AO2 SLP131 T01060017 
METAR KRZZ 172154Z AUTO 27004KT 10SM CLR 11/03 A2988 RMK AO2 SLP118 T01110028 
METAR KRZZ 172054Z AUTO 27006KT 10SM CLR 12/02 A2985 RMK AO2 SLP109 T01220022 53010 
METAR KRZZ 171954Z AUTO 28008KT 10SM CLR 13/03 A2983 RMK AO2 SLP102 T01280028 
METAR KRZZ 171854Z AUTO 29007KT 10SM CLR 13/04 A2983 RMK AO2 SLP099 T01280039 
METAR KRZZ 171754Z AUTO 27012KT 10SM CLR 13/04 A2983 RMK AO2 SLP100 60000 T01280044 10133 20083 56016 
METAR KRZZ 171654Z AUTO 32008G16KT 10SM FEW095 13/04 A2984 RMK AO2 SLP105 T01280044 
METAR KRZZ 171554Z AUTO 27009KT 10SM FEW100 13/08 A2986 RMK AO2 SLP110 T01280078 
METAR KRZZ 171454Z AUTO 25007KT 9SM OVC049 10/08 A2987 RMK AO2 SLP115 60000 T01000078 50005 
METAR KRZZ 171454Z AUTO 25007KT 9SM OVC049 10/08 A2987 RMK AO2 SLP115 60000 T01000078 50005 
METAR KRZZ 171354Z AUTO 25007KT 8SM OVC045 09/07 A2988 RMK AO2 SLP117 T00890072 
METAR KRZZ 171254Z AUTO 24006KT 8SM OVC045 08/07 A2986 RMK AO2 RAE22 SLP111 P0000 T00830067 
METAR KRZZ 171154Z AUTO 23005KT 9SM -RA OVC043 08/07 A2986 RMK AO2 RAB04 SLP111 P0000 60003 70003 T00830067 10111 20083 53007 
METAR KRZZ 171054Z AUTO 24005KT 10SM BKN043 OVC065 09/06 A2984 RMK AO2 SLP105 T00890061 
METAR KRZZ 170954Z AUTO 24005KT 10SM OVC043 08/06 A2983 RMK AO2 SLP102 T00830061 
METAR KRZZ 170854Z AUTO 23006KT 10SM SCT031 BKN050 OVC085 08/06 A2984 RMK AO2 RAB0758E21 SLP103 P0001 60003 T00830061 56008 
METAR KRZZ 170754Z AUTO 24004KT 10SM SCT065 OVC090 08/06 A2984 RMK AO2 RAB10E49 SLP106 P0002 T00830061 
METAR KRZZ 170654Z AUTO 24008KT 10SM FEW100 11/03 A2984 RMK AO2 SLP104 T01060033 
METAR KRZZ 170554Z AUTO VRB06KT 10SM BKN055 11/03 A2986 RMK AO2 RAB42E52 PRESFR SLP111 P0000 60000 T01060028 10111 20100 56025 
METAR KRZZ 170454Z AUTO 24009KT 10SM BKN070 11/03 A2989 RMK AO2 SLP120 T01060028 401331017 
METAR KRZZ 170354Z AUTO VRB04KT 10SM BKN075 10/03 A2990 RMK AO2 SLP125 T01000028 
METAR KRZZ 170254Z AUTO VRB05KT 10SM OVC070 10/03 A2993 RMK AO2 RAB14E38 SLP137 P0000 60000 T01000028 58019 
METAR KRZZ 170154Z AUTO VRB05KT 10SM BKN090 10/02 A2997 RMK AO2 SLP147 T01000017 
METAR KRZZ 170054Z AUTO VRB06KT 10SM BKN080 OVC100 11/01 A2998 RMK AO2 SLP154 T01060011 
METAR KRZZ 162354Z AUTO 24006KT 10SM OVC100 10/01 A2999 RMK AO2 SLP157 60000 T01000011 10122 20100 53000 
METAR KRZZ 162254Z AUTO VRB04KT 10SM FEW070 OVC110 10/02 A2998 RMK AO2 SLP153 T01000017 
METAR KRZZ 162154Z AUTO 00000KT 10SM FEW110 10/02 A2999 RMK AO2 SLP155 T01000017 
METAR KRZZ 162054Z AUTO VRB04KT 10SM OVC090 10/02 A2999 RMK AO2 RAE53 SLP157 P0000 60000 T01000022 55014 
METAR KRZZ 161954Z AUTO 00000KT 9SM -RA FEW018 SCT049 BKN110 10/03 A2999 RMK AO2 RAB22 SLP156 P0000 T01000028 
METAR KRZZ 161754Z AUTO VRB06KT 10SM CLR 12/M01 A3003 RMK AO2 SLP171 T01171006 10133 21011 58031 
METAR KRZZ 161654Z AUTO VRB05KT 10SM CLR 12/01 A3007 RMK AO2 SLP184 T01220011 
METAR KRZZ 161554Z AUTO VRB05KT 10SM CLR 11/00 A3011 RMK AO2 SLP198 T01060000